Jamestown, TN (38556)

3:23 PM CDT on September 01, 2015 (GMT -0500)
Highlands @ BSF | | Change Station
CLOSE
Current Station
Personal Weather Station
Location: Jamestown, TN
Elevation: 1637 ft
Nearby Weather Stations

Elev 1637 ft 36.49 °N, 84.86 °W | Updated 1 minute ago

Clear
Clear
85.8 °F
Feels Like 89 °F
N
0.0
Wind Variable Wind from SSW

Today
High -- | Low -- °F
--% Chance of Precip.
Yesterday
High -- | Low -- °F
Precip. -- in
6:10 AM 7:08 PM
Waning Gibbous, 86% visible
Pressure 30.10 in
Visibility 10.0 miles
Clouds Few 8000 ft
Heat Index 89 °F
Dew Point 68 °F
Humidity 55%
Rainfall 0.00 in
Snow Depth Not available.
UV 7 out of 12
Pollen 9.30 out of 12
Air Quality Not available.
Flu Activity Not available.
METAR KCSV 011953Z AUTO 12005KT 10SM FEW080 28/18 A3016 RMK AO2 SLP193 T02780183
Pressure 30.10 in
Visibility 10.0 miles
Clouds Few 8000 ft
Heat Index 89 °F
Dew Point 68 °F
Humidity 55%
Rainfall 0.00 in
Snow Depth Not available.
UV 7 out of 12
Pollen 9.30 out of 12
Air Quality Not available.
Flu Activity Not available.
METAR KCSV 011953Z AUTO 12005KT 10SM FEW080 28/18 A3016 RMK AO2 SLP193 T02780183

10-Day Weather Forecast

×

Almanac

Astronomy

Sep. 01, 2015 Rise Set
Actual Time
Civil Twilight
Nautical Twilight
Astronomical Twilight
Moon
Length of Visible Light
Length of Day
Tomorrow will be .
, % of the Moon is Illuminated

Today's Extremes

State Highs State Lows

Community

WunderPhotos

Upload Photos

1,851,605 photos uploaded!

WunderBlogs® & News

Nearby

Air Quality

  Air Quality AQ Index Pollutant
Not available.

Snow Depth

Station Depth Elevation

Earthquake Activity

City Distance Mag. Time & Date
Minimum magnitude displayed is 2.5.

Coastal Water Temperatures

Place Temperature

Stations

Nearby Weather Stations

Station Location Temp. Windchill Dew Point Humidity Wind Precip. Elev Updated Type